• Join FlightAware (Why Join?)
  • Login
  • US Flag 
07:03PM EDT


 

Airport Tracker/Info


-or-


 

Live Flight TrackerFlight Track Log ✈ VRD360 ✈ 23-Apr-2013 ✈ KLAX - KBOS

Flight Track Log - Related Links

Times and Time Zones

All times are in EDT time to prevent confusion due to time zone crossing. See the VRD360 flight status page for this flight to view local times or setup timezone preferences in your user account.

Time Position Orientation Groundspeed Altitude Reporting Facility
EDT Latitude Longitude Course Direction KTS MPH feet Rate Location/Type
11:04AM 33.9470 -118.4370 262° West 169 194 600  Level FlightAware
11:04AM 33.9450 -118.4510 260° West 166 191 1,300 1,920 Climbing FlightAware
11:05AM 33.9430 -118.4750 264° West 185 213 1,900 960 Climbing FlightAware
11:05AM 33.9390 -118.5070 261° West 227 261 2,200 660 Climbing FlightAware
11:06AM 33.9380 -118.5250 266° West 247 284 2,400 2,100 Climbing FlightAware
11:06AM 33.9320 -118.5740 262° West 268 308 3,800 2,400 Climbing FlightAware
11:07AM 33.9260 -118.6120 259° West 285 328 4,600 2,400 Climbing FlightAware
11:07AM 33.9170 -118.6360 246° West 291 335 5,400 2,580 Climbing FlightAware
11:07AM 33.9030 -118.6510 222° Southwest 289 333 5,900 2,400 Climbing FlightAware
11:07AM 33.8850 -118.6580 198° South 288 331 6,600 2,220 Climbing FlightAware
11:08AM 33.8530 -118.6460 163° South 290 334 7,400 2,100 Climbing FlightAware
11:08AM 33.8420 -118.6290 128° Southeast 289 333 8,000 2,160 Climbing FlightAware
11:08AM 33.8370 -118.6010 102° East 293 337 8,500 1,920 Climbing FlightAware
11:08AM 33.8390 -118.5870 80° East 295 339 8,800 1,920 Climbing FlightAware
11:09AM 33.8490 -118.5670 59° Northeast 293 337 9,300 1,860 Climbing FlightAware
11:09AM 33.8900 -118.5040 52° Northeast 316 364 10,700 1,380 Climbing FlightAware
11:10AM 33.9220 -118.4510 54° Northeast 350 403 11,300 1,680 Climbing FlightAware
11:11AM 33.9670 -118.3740 55° Northeast 355 409 13,100 2,100 Climbing FlightAware
11:11AM 33.9990 -118.3170 56° Northeast 367 422 14,100 2,100 Climbing FlightAware
11:12AM 34.0450 -118.2360 56° Northeast 369 425 15,900 2,100 Climbing FlightAware
11:13AM 34.0890 -118.1580 56° Northeast 377 434 17,300 1,680 Climbing FlightAware
11:14AM 34.1270 -118.0900 56° Northeast 388 447 18,300 1,620 Climbing FlightAware
11:14AM 34.1880 -117.9820 56° Northeast 406 467 19,600 1,620 Climbing FlightAware
11:15AM 34.2250 -117.9170 55° Northeast 412 474 20,500 1,500 Climbing FlightAware
11:16AM 34.2760 -117.8260 56° Northeast 424 488 21,600 1,320 Climbing FlightAware
11:16AM 34.3240 -117.7410 56° Northeast 432 497 22,500 1,380 Climbing FlightAware
11:17AM 34.3670 -117.6620 57° Northeast 434 499 23,600 1,380 Climbing FlightAware
11:18AM 34.4190 -117.5690 56° Northeast 444 511 24,500 1,260 Climbing FlightAware
11:18AM 34.4590 -117.4970 56° Northeast 445 512 25,300 1,260 Climbing FlightAware
11:19AM 34.5050 -117.4150 56° Northeast 449 517 26,100 1,200 Climbing FlightAware
11:20AM 34.5740 -117.3190 49° Northeast 450 518 27,100 1,020 Climbing FlightAware
11:21AM 34.6280 -117.2430 49° Northeast 456 525 27,700 1,080 Climbing FlightAware
11:21AM 34.6920 -117.1540 49° Northeast 456 525 28,700 1,080 Climbing FlightAware
11:22AM 34.7460 -117.0790 49° Northeast 460 529 29,300 960 Climbing FlightAware
11:23AM 34.8030 -116.9980 49° Northeast 460 529 30,000 960 Climbing FlightAware
11:23AM 34.8660 -116.9100 49° Northeast 465 535 30,700 1,080 Climbing FlightAware
11:24AM 34.9120 -116.8450 49° Northeast 459 528 31,500 1,200 Climbing FlightAware
11:25AM 34.9790 -116.7510 49° Northeast 460 529 32,300 1,200 Climbing FlightAware
11:25AM 35.0330 -116.6750 49° Northeast 448 516 33,200 840 Climbing FlightAware
11:26AM 35.0790 -116.5830 59° Northeast 465 535 33,500 600 Climbing FlightAware
11:27AM 35.1240 -116.4680 64° Northeast 465 535 34,100 720 Climbing FlightAware
11:28AM 35.1610 -116.3740 64° Northeast 462 532 34,600 600 Climbing FlightAware
11:28AM 35.2010 -116.2700 65° Northeast 464 534 35,000 240 Climbing FlightAware
11:29AM 35.2390 -116.1750 64° Northeast 465 535 35,000  Level FlightAware
11:30AM 35.2760 -116.0800 64° Northeast 465 535 35,000  Level FlightAware
11:30AM 35.3180 -115.9730 64° Northeast 466 536 35,000  Level FlightAware
11:31AM 35.3550 -115.8760 65° Northeast 467 537 35,000  Level FlightAware
11:32AM 35.3920 -115.7810 64° Northeast 468 539 35,000  Level FlightAware
11:32AM 35.4330 -115.6760 64° Northeast 469 540 35,000  Level FlightAware
11:33AM 35.4710 -115.5770 65° Northeast 473 544 35,000  Level FlightAware
11:34AM 35.5110 -115.4720 65° Northeast 478 550 35,000 60 Level FlightAware
11:35AM 35.5500 -115.3700 65° Northeast 480 552 35,100 60 Climbing FlightAware
11:35AM 35.5880 -115.2710 65° Northeast 479 551 35,100 -120 Level FlightAware
11:36AM 35.6300 -115.1610 65° Northeast 477 549 35,000 -120 Descending FlightAware
11:37AM 35.6670 -115.0610 65° Northeast 477 549 35,000  Level FlightAware
11:37AM 35.7080 -114.9530 65° Northeast 479 551 35,000  Level FlightAware
11:38AM 35.7460 -114.8530 65° Northeast 481 554 35,000  Level FlightAware
11:39AM 35.7900 -114.7370 65° Northeast 483 556 35,000  Level FlightAware
11:39AM 35.8260 -114.6380 66° East 485 558 35,000  Level FlightAware
11:40AM 35.8630 -114.5390 65° Northeast 488 562 35,000  Level FlightAware
11:41AM 35.9070 -114.4230 65° Northeast 492 566 35,000  Level FlightAware
11:42AM 35.9440 -114.3210 66° East 494 568 35,000  Level FlightAware
11:42AM 35.9820 -114.2180 65° Northeast 496 571 35,000  Level FlightAware
11:43AM 36.0240 -114.1050 65° Northeast 499 574 35,000  Level FlightAware
11:44AM 36.0630 -113.9990 66° East 499 574 35,000  Level FlightAware
11:44AM 36.1050 -113.8820 66° East 500 575 35,000  Level FlightAware
11:45AM 36.1430 -113.7780 66° East 501 577 35,000  Level FlightAware
11:46AM 36.1840 -113.6640 66° East 502 578 35,000  Level FlightAware
11:46AM 36.2230 -113.5560 66° East 503 579 35,000  Level FlightAware
11:47AM 36.2610 -113.4520 66° East 505 581 35,000  Level FlightAware
11:48AM 36.3040 -113.3320 66° East 507 583 35,000  Level FlightAware
11:49AM 36.3420 -113.2240 66° East 509 586 35,000  Level FlightAware
11:49AM 36.3790 -113.1200 66° East 509 586 35,000 60 Level FlightAware
11:50AM 36.4200 -113.0050 66° East 509 586 35,100  Climbing FlightAware
11:51AM 36.4600 -112.8920 66° East 506 582 35,000 -120 Descending FlightAware
11:51AM 36.5020 -112.7730 66° East 504 580 35,000  Level FlightAware
11:52AM 36.5410 -112.6630 66° East 506 582 35,000  Level FlightAware
11:53AM 36.5810 -112.5480 67° East 508 585 35,000  Level FlightAware
11:53AM 36.6160 -112.4480 66° East 509 586 35,000  Level FlightAware
11:54AM 36.6550 -112.3340 67° East 509 586 35,000  Level FlightAware
11:55AM 36.6960 -112.2180 66° East 509 586 35,000  Level FlightAware
11:56AM 36.7290 -112.1270 66° East 509 586 35,000  Level FlightAware
11:56AM 36.7610 -112.0360 66° East 509 586 35,000  Level FlightAware
11:57AM 36.7940 -111.9440 66° East 509 586 35,000  Level FlightAware
11:58AM 36.8260 -111.8530 66° East 509 586 35,000  Level FlightAware
11:58AM 36.8670 -111.7390 66° East 509 586 35,000  Level FlightAware
11:59AM 36.9000 -111.6470 66° East 509 586 35,000  Level FlightAware
12:00PM 36.9320 -111.5560 66° East 509 586 35,000  Level FlightAware
12:00PM 36.9650 -111.4640 66° East 509 586 35,000  Level FlightAware
12:01PM 36.9970 -111.3730 66° East 509 586 35,000  Level FlightAware
12:02PM 37.0380 -111.2580 66° East 509 586 35,000  Level FlightAware
12:03PM 37.0700 -111.1670 66° East 509 586 35,000  Level FlightAware
12:03PM 37.1030 -111.0750 66° East 509 586 35,000  Level FlightAware
12:04PM 37.1360 -110.9830 66° East 509 586 35,000  Level FlightAware
12:04PM 37.2042 -110.7050 66° East 508 585 35,000  Level Denver Center
12:05PM 37.2575 -110.5408 68° East 509 586 35,000  Level Denver Center
12:06PM 37.3114 -110.3753 68° East 513 590 35,000  Level Denver Center
12:07PM 37.3761 -110.1756 68° East 519 597 35,100  Climbing Denver Center
12:08PM 37.4283 -110.0131 68° East 520 598 35,100 -60 Level Denver Center
12:09PM 37.4797 -109.8508 68° East 523 602 35,000 -60 Descending Denver Center
12:10PM 37.5403 -109.6600 68° East 525 604 35,000  Level Denver Center
12:11PM 37.5922 -109.4939 68° East 529 609 35,000  Level Denver Center
12:12PM 37.6533 -109.3014 68° East 528 608 35,000  Level Denver Center
12:13PM 37.7050 -109.1356 68° East 530 610 35,100  Climbing Denver Center
12:15PM 37.7642 -108.9431 69° East 525 604 35,000 -60 Descending Denver Center
12:16PM 37.8042 -108.7793 73° East  Level FlightAware Approximate
12:17PM 37.8731 -108.5869 73° East 521 600 35,000  Level Denver Center
12:18PM 37.9231 -108.4203 69° East 525 604 35,100  Climbing Denver Center
12:19PM 37.9814 -108.2300 69° East 522 601 35,000 -60 Descending Denver Center
12:20PM 38.0306 -108.0658 69° East 519 597 35,000  Level Denver Center
12:21PM 38.0853 -107.8833 69° East 523 602 35,000  Level Denver Center
12:22PM 38.1328 -107.7183 70° East 522 601 35,000  Level Denver Center
12:28PM 38.4441 -106.6430 70° East 517 595 35,000  Level FlightAware ADS-B
12:29PM 38.4870 -106.4910 70° East 519 597 35,000  Level FlightAware ADS-B
12:29PM 38.5115 -106.4040 70° East 522 601 35,000  Level FlightAware ADS-B
12:30PM 38.5461 -106.2800 70° East 523 602 35,000 60 Level FlightAware ADS-B
12:30PM 38.5734 -106.1830 70° East 523 602 35,100 60 Climbing FlightAware ADS-B
12:31PM 38.5990 -106.0900 71° East 520 598 35,100 -180 Level FlightAware
12:31PM 38.6067 -106.0630 70° East 521 600 35,000 -180 Descending FlightAware ADS-B
12:32PM 38.6320 -105.9720 70° East 520 598 35,000  Level FlightAware
12:32PM 38.6369 -105.9540 71° East 520 598 35,000  Level FlightAware ADS-B
12:32PM 38.6613 -105.8650 71° East 522 601 35,000  Level FlightAware ADS-B
12:33PM 38.6859 -105.7750 71° East 521 600 35,000  Level FlightAware ADS-B
12:33PM 38.7101 -105.6860 71° East 523 602 35,000  Level FlightAware ADS-B
12:34PM 38.7341 -105.5980 71° East 525 604 35,000  Level FlightAware ADS-B
12:34PM 38.7585 -105.5080 71° East 526 605 35,000  Level FlightAware ADS-B
12:35PM 38.7833 -105.4160 71° East 528 608 35,000  Level FlightAware ADS-B
12:35PM 38.8078 -105.3260 71° East 530 610 35,000 60 Level FlightAware ADS-B
12:36PM 38.8310 -105.2390 71° East 531 611 35,100 60 Climbing FlightAware ADS-B
12:36PM 38.8551 -105.1490 71° East 531 611 35,100  Level FlightAware ADS-B
12:37PM 38.8790 -105.0590 71° East 528 608 35,100 -120 Level FlightAware ADS-B
12:37PM 38.9031 -104.9680 71° East 526 605 35,000 -120 Descending FlightAware ADS-B
12:38PM 38.9265 -104.8800 71° East 524 603 35,000  Level FlightAware ADS-B
12:38PM 38.9520 -104.7830 71° East 523 602 35,000  Level FlightAware ADS-B
12:39PM 38.9782 -104.6840 71° East 523 602 35,000  Level FlightAware ADS-B
12:40PM 39.0011 -104.5960 71° East 523 602 35,000  Level FlightAware ADS-B
12:40PM 39.0247 -104.5060 71° East 524 603 35,000  Level FlightAware ADS-B
12:41PM 39.0498 -104.4090 72° East 525 604 35,000  Level FlightAware ADS-B
12:41PM 39.0724 -104.3220 71° East 524 603 35,000  Level FlightAware ADS-B
12:42PM 39.0976 -104.2240 72° East 523 602 35,000  Level FlightAware ADS-B
12:42PM 39.1211 -104.1320 72° East 522 601 35,000  Level FlightAware ADS-B
12:43PM 39.1441 -104.0430 72° East 522 601 35,000  Level FlightAware ADS-B
12:43PM 39.1670 -103.9530 72° East 523 602 35,000  Level FlightAware ADS-B
12:44PM 39.1900 -103.8630 72° East 521 600 35,000  Level FlightAware ADS-B
12:44PM 39.2127 -103.7730 72° East 522 601 35,000  Level FlightAware ADS-B
12:45PM 39.2346 -103.6860 72° East 521 600 35,000  Level FlightAware ADS-B
12:45PM 39.2572 -103.5960 72° East 522 601 35,000  Level FlightAware ADS-B
12:46PM 39.2802 -103.5040 72° East 522 601 35,000  Level FlightAware ADS-B
12:46PM 39.3037 -103.4100 72° East 521 600 35,000  Level FlightAware ADS-B
12:47PM 39.3258 -103.3210 72° East 522 601 35,000  Level FlightAware ADS-B
12:47PM 39.3481 -103.2310 72° East 522 601 35,000  Level FlightAware ADS-B
12:48PM 39.3710 -103.1380 72° East 522 601 35,000  Level FlightAware ADS-B
12:48PM 39.3923 -103.0510 72° East 522 601 35,000  Level FlightAware ADS-B
12:49PM 39.4148 -102.9600 72° East 523 602 35,000  Level FlightAware ADS-B
12:49PM 39.4367 -102.8700 72° East 525 604 35,000  Level FlightAware ADS-B
12:50PM 39.4594 -102.7770 72° East 529 609 35,000  Level FlightAware ADS-B
12:50PM 39.4807 -102.6880 73° East 531 611 35,000 60 Level FlightAware ADS-B
12:51PM 39.5031 -102.5950 73° East 532 612 35,100 60 Climbing FlightAware ADS-B
12:51PM 39.5251 -102.5030 73° East 533 613 35,100  Level FlightAware ADS-B
12:52PM 39.5476 -102.4090 73° East 532 612 35,100  Level FlightAware ADS-B
12:52PM 39.5690 -102.3190 73° East 530 610 35,100 -120 Level FlightAware ADS-B
12:53PM 39.5907 -102.2270 73° East 529 609 35,000 -120 Descending FlightAware ADS-B
12:53PM 39.6128 -102.1340 73° East 528 608 35,000  Level FlightAware ADS-B
12:54PM 39.6347 -102.0410 73° East 526 605 35,000  Level FlightAware ADS-B
12:54PM 39.6564 -101.9480 73° East 525 604 35,000  Level FlightAware ADS-B
12:55PM 39.6782 -101.8550 73° East 523 602 35,000  Level FlightAware ADS-B
12:55PM 39.6992 -101.7650 73° East 521 600 35,000  Level FlightAware ADS-B
12:56PM 39.7199 -101.6760 73° East 520 598 35,000  Level FlightAware ADS-B
12:56PM 39.7411 -101.5840 73° East 522 601 35,000  Level FlightAware ADS-B
12:57PM 39.7623 -101.4910 73° East 521 600 35,000  Level FlightAware ADS-B
12:57PM 39.7834 -101.3990 73° East 522 601 35,000  Level FlightAware ADS-B
12:58PM 39.8031 -101.3120 74° East 525 604 35,000  Level FlightAware ADS-B
12:58PM 39.8244 -101.2180 74° East 525 604 35,000  Level FlightAware ADS-B
12:59PM 39.8478 -101.1167 74° East 523 602 35,000  Level Denver Center
01:00PM 39.8869 -100.9411 74° East 527 606 35,000  Level Denver Center
01:01PM 39.9325 -100.7381 74° East 526 605 35,000  Level Denver Center
01:02PM 39.9708 -100.5628 74° East 528 608 35,000  Level Denver Center
01:03PM 40.0144 -100.3594 74° East 525 604 35,000  Level Denver Center
01:04PM 40.0539 -100.1844 74° East 528 608 35,000  Level Denver Center
01:05PM 40.0969 -99.9789 75° East 528 608 35,000  Level Denver Center
01:06PM 40.1333 -99.8119 74° East 528 608 35,000  Level Denver Center
01:07PM 40.1794 -99.5900 75° East 527 606 35,000  Level Denver Center
01:08PM 40.2189 -99.4058 74° East 527 606 35,000  Level Denver Center
01:09PM 40.2569 -99.2208 75° East 528 608 35,000  Level Denver Center
01:10PM 40.2947 -99.0347 75° East 530 610 35,000  Level Denver Center
01:11PM 40.3331 -98.8478 75° East 531 611 35,000  Level Denver Center
01:12PM 40.3561 -98.7364 75° East 533 613 35,000  Level Minneapolis Center
01:13PM 40.3936 -98.5497 75° East 532 612 35,000  Level Minneapolis Center
01:19PM 40.6030 -97.4730 75° East 534 615 35,000  Level FlightAware
01:20PM 40.6220 -97.3710 76° East 534 615 35,000  Level FlightAware
01:21PM 40.6470 -97.2370 76° East 534 615 35,000  Level FlightAware
01:21PM 40.6680 -97.1290 76° East 534 615 35,000  Level FlightAware
01:22PM 40.6880 -97.0220 76° East 534 615 35,000  Level FlightAware
01:23PM 40.7190 -96.8460 77° East 536 617 35,000  Level FlightAware
01:23PM 40.7450 -96.7070 76° East 536 617 35,000  Level FlightAware
01:24PM 40.7690 -96.5710 77° East 535 616 35,000  Level FlightAware
01:25PM 40.7880 -96.4630 77° East 535 616 35,000  Level FlightAware
01:26PM 40.8070 -96.3540 77° East 535 616 35,000  Level FlightAware
01:27PM 40.8530 -96.1050 76° East 531 611 35,000  Level FlightAware
01:27PM 40.8750 -95.9740 77° East 531 611 35,000  Level FlightAware
01:28PM 40.8940 -95.8660 77° East 531 611 35,000  Level FlightAware
01:29PM 40.9180 -95.7320 77° East 531 611 35,000  Level FlightAware
01:30PM 40.9360 -95.6240 78° East 531 611 35,000  Level FlightAware
01:30PM 40.9550 -95.5160 77° East 531 611 35,000  Level FlightAware
01:31PM 40.9880 -95.3150 78° East 529 609 35,000  Level FlightAware
01:32PM 41.0120 -95.1730 77° East 529 609 35,000  Level FlightAware
01:33PM 41.0440 -94.9820 77° East 529 609 35,000  Level FlightAware
01:33PM 41.0610 -94.8740 78° East 529 609 35,000  Level FlightAware
01:34PM 41.0890 -94.7090 77° East 35,000  Level FlightAware
01:36PM 41.1790 -94.1480 78° East 528 608 35,000  Level FlightAware
01:37PM 41.2040 -93.9870 78° East 526 605 35,000  Level FlightAware
01:38PM 41.2240 -93.8630 78° East 526 605 35,000  Level FlightAware
01:38PM 41.2410 -93.7560 78° East 526 605 35,000  Level FlightAware
01:39PM 41.2580 -93.6480 78° East 526 605 35,000  Level FlightAware
01:40PM 41.2900 -93.4560 77° East 527 606 35,000  Level FlightAware
01:41PM 41.3120 -93.3170 78° East 526 605 35,000  Level FlightAware
01:41PM 41.3330 -93.1900 78° East 524 603 35,000  Level FlightAware
01:42PM 41.3570 -93.0390 78° East 525 604 35,000  Level FlightAware
01:43PM 41.3760 -92.9200 78° East 523 602 35,000  Level FlightAware
01:44PM 41.4030 -92.7490 78° East 522 601 35,000  Level FlightAware
01:44PM 41.4190 -92.6460 78° East 522 601 35,000  Level FlightAware
01:45PM 41.4450 -92.4770 78° East 522 601 35,000  Level FlightAware
01:46PM 41.4670 -92.3390 78° East 522 601 35,000  Level FlightAware
01:46PM 41.4860 -92.2100 79° East 521 600 35,000  Level FlightAware
01:47PM 41.5060 -92.0790 78° East 521 600 35,000  Level FlightAware
01:48PM 41.5270 -91.9410 78° East 521 600 35,000  Level FlightAware
01:48PM 41.5450 -91.8160 79° East 522 601 35,000  Level FlightAware
01:49PM 41.5630 -91.6940 79° East 522 601 35,000  Level FlightAware
01:50PM 41.5850 -91.5490 78° East 522 601 35,000  Level FlightAware
01:51PM 41.6030 -91.4240 79° East 523 602 35,000  Level FlightAware
01:51PM 41.6230 -91.2820 79° East 522 601 35,000  Level FlightAware
01:52PM 41.6410 -91.1550 79° East 521 600 35,000  Level FlightAware
01:53PM 41.6610 -91.0150 79° East 519 597 35,000  Level FlightAware
01:53PM 41.6790 -90.8870 79° East 519 597 35,000  Level FlightAware
01:54PM 41.6970 -90.7610 79° East 518 596 35,000  Level FlightAware
01:55PM 41.7140 -90.6330 80° East 517 595 35,000  Level FlightAware
01:56PM 41.7380 -90.4600 79° East 517 595 35,000  Level FlightAware
01:56PM 41.7570 -90.3160 80° East 517 595 35,000  Level FlightAware
01:57PM 41.7760 -90.1750 80° East 517 595 35,000  Level FlightAware
01:58PM 41.7930 -90.0450 80° East 515 593 35,000  Level FlightAware
01:59PM 41.8110 -89.9090 80° East 516 594 35,000  Level FlightAware
01:59PM 41.8270 -89.7820 80° East 516 594 35,000  Level FlightAware
02:00PM 41.8460 -89.6390 80° East 517 595 35,000 120 Level FlightAware
02:01PM 41.8620 -89.5090 81° East 519 597 35,200 480 Climbing FlightAware
02:01PM 41.8780 -89.3840 80° East 523 602 35,700 600 Climbing FlightAware
02:02PM 41.8960 -89.2410 80° East 528 608 36,100 540 Climbing FlightAware
02:03PM 41.9120 -89.1120 80° East 529 609 36,500 660 Climbing FlightAware
02:03PM 41.9280 -88.9800 81° East 529 609 37,000 300 Climbing FlightAware
02:04PM 41.9450 -88.8360 81° East 527 606 37,000  Level FlightAware
02:05PM 41.9610 -88.7050 81° East 526 605 37,000  Level FlightAware
02:06PM 41.9780 -88.5650 81° East 520 598 37,000  Level FlightAware
02:06PM 41.9920 -88.4390 81° East 516 594 37,000  Level FlightAware
02:07PM 42.0070 -88.3150 81° East 518 596 37,000  Level FlightAware
02:08PM 42.0240 -88.1710 81° East 520 598 37,000  Level FlightAware
02:08PM 42.0380 -88.0430 82° East 520 598 37,000  Level FlightAware
02:09PM 42.0530 -87.9130 81° East 519 597 37,000  Level FlightAware
02:10PM 42.0690 -87.7700 81° East 519 597 37,000  Level FlightAware
02:10PM 42.0830 -87.6440 81° East 518 596 37,000  Level FlightAware
02:11PM 42.0990 -87.4960 82° East 516 594 37,000  Level FlightAware
02:12PM 42.1120 -87.3720 82° East 516 594 37,000  Level FlightAware
02:12PM 42.1260 -87.2440 82° East 516 594 37,000  Level FlightAware
02:13PM 42.1400 -87.1080 82° East 517 595 37,000  Level FlightAware
02:14PM 42.1530 -86.9800 82° East 517 595 37,000  Level FlightAware
02:15PM 42.1680 -86.8380 82° East 517 595 37,000  Level FlightAware
02:15PM 42.1820 -86.7060 82° East 517 595 37,000  Level FlightAware
02:16PM 42.1950 -86.5720 82° East 518 596 37,000  Level FlightAware
02:17PM 42.2080 -86.4380 82° East 519 597 37,000  Level FlightAware
02:17PM 42.2210 -86.3070 82° East 520 598 37,000  Level FlightAware
02:18PM 42.2350 -86.1640 82° East 520 598 37,000  Level FlightAware
02:19PM 42.2460 -86.0470 83° East 521 600 37,000  Level FlightAware
02:19PM 42.2600 -85.9040 82° East 520 598 37,000  Level FlightAware
02:20PM 42.2730 -85.7590 83° East 519 597 37,000  Level FlightAware
02:21PM 42.2850 -85.6300 83° East 519 597 37,000  Level FlightAware
02:22PM 42.2980 -85.4890 83° East 519 597 37,000  Level FlightAware
02:22PM 42.3090 -85.3650 83° East 519 597 37,000  Level FlightAware
02:23PM 42.3220 -85.2110 83° East 518 596 37,000  Level FlightAware
02:24PM 42.3320 -85.1000 83° East 519 597 37,000  Level FlightAware
02:24PM 42.3450 -84.9530 83° East 521 600 37,000 60 Level FlightAware
02:25PM 42.3570 -84.8060 84° East 518 596 37,100  Climbing FlightAware
02:26PM 42.3660 -84.7050 83° East 518 596 37,000 -120 Descending FlightAware
02:27PM 42.3800 -84.5390 83° East 517 595 37,000  Level FlightAware
02:27PM 42.3880 -84.4280 84° East 515 593 37,000  Level FlightAware
02:28PM 42.4010 -84.2680 84° East 514 592 37,000  Level FlightAware
02:29PM 42.4110 -84.1440 84° East 514 592 37,000  Level FlightAware
02:29PM 42.4210 -84.0140 84° East 515 593 37,000  Level FlightAware
02:30PM 42.4320 -83.8680 84° East 516 594 37,000  Level FlightAware
02:31PM 42.4420 -83.7350 84° East 517 595 37,000  Level FlightAware
02:31PM 42.4510 -83.6120 84° East 517 595 37,000  Level FlightAware
02:32PM 42.4630 -83.4450 84° East 517 595 37,000 -300 Level FlightAware
02:33PM 42.4730 -83.3110 84° East 517 595 36,500 -720 Descending FlightAware
02:34PM 42.4800 -83.2040 85° East 520 598 36,100 -960 Descending FlightAware
02:34PM 42.4920 -83.0400 84° East 518 596 35,200 -780 Descending FlightAware
02:35PM 42.5010 -82.9050 85° East 520 598 35,000 -180 Descending FlightAware
02:36PM 42.5110 -82.7570 85° East 523 602 35,000  Level FlightAware
02:36PM 42.5180 -82.6460 85° East 521 600 35,000  Level FlightAware
02:37PM 42.5270 -82.5070 85° East 520 598 35,000  Level FlightAware
02:38PM 42.5340 -82.3860 85° East 519 597 35,000  Level FlightAware
02:39PM 42.5440 -82.2260 85° East 518 596 35,000  Level FlightAware
02:39PM 42.5510 -82.1150 85° East 518 596 35,000  Level FlightAware
02:40PM 42.5610 -81.9520 85° East 517 595 35,000  Level FlightAware
02:41PM 42.5680 -81.8320 85° East 517 595 35,000  Level FlightAware
02:41PM 42.5760 -81.6850 86° East 517 595 35,000  Level FlightAware
02:42PM 42.5830 -81.5600 86° East 517 595 35,000  Level FlightAware
02:43PM 42.5910 -81.4230 85° East 517 595 35,000  Level FlightAware
02:43PM 42.5980 -81.2910 86° East 517 595 35,000  Level FlightAware
02:44PM 42.6050 -81.1550 86° East 517 595 35,000  Level FlightAware
02:45PM 42.6110 -81.0250 86° East 516 594 35,000  Level FlightAware
02:46PM 42.6190 -80.8700 86° East 515 593 35,000  Level FlightAware
02:46PM 42.6260 -80.7230 86° East 515 593 35,000  Level FlightAware
02:47PM 42.6320 -80.5890 86° East 515 593 35,000  Level FlightAware
02:48PM 42.6410 -80.3930 86° East 515 593 35,000  Level FlightAware
02:49PM 42.6470 -80.2630 86° East 516 594 35,000  Level FlightAware
02:49PM 42.6530 -80.1210 87° East 516 594 35,000  Level FlightAware
02:50PM 42.6590 -79.9950 86° East 516 594 35,000  Level FlightAware
02:51PM 42.6650 -79.8490 87° East 514 592 35,000  Level FlightAware
02:51PM 42.6700 -79.7200 87° East 514 592 35,000  Level FlightAware
02:52PM 42.6750 -79.5740 87° East 512 589 35,000  Level FlightAware
02:53PM 42.6800 -79.4470 87° East 509 586 35,000  Level FlightAware
02:53PM 42.6840 -79.3360 87° East 508 585 35,000 60 Level FlightAware
02:54PM 42.6890 -79.1900 87° East 500 575 35,100 60 Climbing FlightAware
02:55PM 42.6940 -79.0530 87° East 492 566 35,100 -120 Level FlightAware
02:56PM 42.6970 -78.9400 88° East 487 560 35,000 -120 Descending FlightAware
02:56PM 42.7020 -78.8060 87° East 480 552 35,000  Level FlightAware
02:57PM 42.7050 -78.6880 88° East 479 551 35,000  Level FlightAware
02:58PM 42.7090 -78.5530 88° East 479 551 35,000  Level FlightAware
02:58PM 42.7130 -78.4320 87° East 481 554 35,000  Level FlightAware
02:59PM 42.7160 -78.3110 88° East 485 558 35,000 60 Level FlightAware
03:00PM 42.7190 -78.1750 88° East 485 558 35,100 60 Climbing FlightAware
03:01PM 42.7220 -78.0530 88° East 484 557 35,100  Level FlightAware
03:01PM 42.7250 -77.9330 88° East 482 555 35,100 -120 Level FlightAware
03:02PM 42.7280 -77.7960 88° East 480 552 35,000 -120 Descending FlightAware
03:03PM 42.7310 -77.6770 88° East 481 554 35,000  Level FlightAware
03:03PM 42.7340 -77.5430 88° East 478 550 35,000  Level FlightAware
03:04PM 42.7360 -77.4230 89° East 477 549 35,000 60 Level FlightAware
03:05PM 42.7380 -77.2890 89° East 472 543 35,100 60 Climbing FlightAware
03:05PM 42.7410 -77.1700 88° East 466 536 35,100 -120 Level FlightAware
03:06PM 42.7430 -77.0540 89° East 461 531 35,000 -120 Descending FlightAware
03:07PM 42.7450 -76.9230 89° East 457 526 35,000  Level FlightAware
03:08PM 42.7460 -76.8140 89° East 455 524 35,000 60 Level FlightAware
03:08PM 42.7480 -76.6830 89° East 448 516 35,100  Climbing FlightAware
03:09PM 42.7490 -76.5730 89° East 449 517 35,000 -120 Descending FlightAware
03:10PM 42.7500 -76.4590 89° East 451 519 35,000  Level FlightAware
03:10PM 42.7510 -76.3320 89° East 451 519 35,000 60 Level FlightAware
03:11PM 42.7520 -76.2210 89° East 449 517 35,100  Climbing FlightAware
03:12PM 42.7540 -76.1070 89° East 448 516 35,000 -120 Descending FlightAware
03:12PM 42.7540 -75.9800 90° East 445 512 35,000  Level FlightAware
03:13PM 42.7550 -75.8690 89° East 443 510 35,000  Level FlightAware
03:14PM 42.7560 -75.7460 89° East 443 510 35,000  Level FlightAware
03:15PM 42.7560 -75.6320 90° East 444 511 35,000  Level FlightAware
03:15PM 42.7560 -75.5180 90° East 448 516 35,000  Level FlightAware
03:16PM 42.7570 -75.3970 89° East 454 522 35,000 60 Level FlightAware
03:17PM 42.7570 -75.2540 90° East 457 526 35,100 60 Climbing FlightAware
03:18PM 42.7570 -75.1210 90° East 456 525 35,100 -120 Level FlightAware
03:18PM 42.7560 -75.0070 91° East 457 526 35,000 -120 Descending FlightAware
03:19PM 42.7560 -74.8770 90° East 457 526 35,000  Level FlightAware
03:20PM 42.7550 -74.7480 91° East 456 525 35,000 60 Level FlightAware
03:20PM 42.7550 -74.6490 90° East 452 520 35,100 60 Climbing FlightAware
03:21PM 42.7550 -74.4810 90° East 448 516 35,100  Level FlightAware
03:22PM 42.7550 -74.3850 90° East 448 516 35,100 -120 Level FlightAware
03:23PM 42.7520 -74.2140 91° East 441 507 35,000 -120 Descending FlightAware
03:23PM 42.7510 -74.1290 91° East 443 510 35,000  Level FlightAware
03:24PM 42.7500 -73.9800 90° East 444 511 35,000  Level FlightAware
03:25PM 42.7480 -73.8670 91° East 445 512 35,000  Level FlightAware
03:26PM 42.7430 -73.7570 94° East 431 496 35,000  Level FlightAware
03:26PM 42.7300 -73.6360 98° East 432 497 35,000 -180 Level FlightAware
03:27PM 42.7180 -73.5290 99° East 432 497 34,800 -600 Descending FlightAware
03:28PM 42.7060 -73.4120 98° East 428 493 34,200 -960 Descending FlightAware
03:28PM 42.6940 -73.3030 98° East 430 495 33,500 -1,020 Descending FlightAware
03:29PM 42.6830 -73.2050 99° East 433 498 32,900 -1,020 Descending FlightAware
03:30PM 42.6690 -73.0740 98° East 445 512 32,100 -1,980 Descending FlightAware
03:30PM 42.6560 -72.9620 99° East 450 518 30,100 -3,420 Descending FlightAware
03:31PM 42.6390 -72.8070 98° East 463 533 26,700 -3,060 Descending FlightAware
03:32PM 42.6230 -72.6780 100° East 449 517 25,000 -2,280 Descending FlightAware
03:33PM 42.6090 -72.5660 100° East 435 501 23,500 -2,100 Descending FlightAware
03:33PM 42.5970 -72.4640 99° East 423 487 22,200 -1,980 Descending FlightAware
03:34PM 42.5820 -72.3480 100° East 409 471 20,700 -1,980 Descending FlightAware
03:35PM 42.5700 -72.2490 99° East 395 455 19,400 -1,980 Descending FlightAware
03:36PM 42.5570 -72.1390 99° East 381 438 17,900 -2,220 Descending FlightAware
03:36PM 42.5440 -72.0440 100° East 378 435 16,300 -2,100 Descending FlightAware
03:37PM 42.5360 -71.9530 97° East 367 422 15,100 -1,800 Descending FlightAware
03:38PM 42.5270 -71.8520 97° East 354 407 13,800 -1,740 Descending FlightAware
03:38PM 42.5190 -71.7660 97° East 342 394 12,700 -1,740 Descending FlightAware
03:39PM 42.5100 -71.6720 97° East 330 380 11,400 -1,560 Descending FlightAware
03:40PM 42.5030 -71.5910 97° East 323 372 10,500 -1,080 Descending FlightAware
03:41PM 42.4950 -71.5040 97° East 300 345 9,900 -780 Descending FlightAware
03:41PM 42.4900 -71.4590 99° East 283 326 9,600 -780 Descending FlightAware
03:41PM 42.4850 -71.4060 97° East 281 323 9,200 -780 Descending FlightAware
03:42PM 42.4810 -71.3630 97° East 276 318 8,900 -660 Descending FlightAware
03:42PM 42.4760 -71.3110 97° East 272 313 8,600 -660 Descending FlightAware
03:43PM 42.4720 -71.2690 97° East 270 311 8,300 -780 Descending FlightAware
03:43PM 42.4670 -71.2180 98° East 266 306 7,900 -720 Descending FlightAware
03:44PM 42.4630 -71.1720 97° East 249 287 7,600 -600 Descending FlightAware
03:44PM 42.4600 -71.1370 97° East 231 266 7,400 -480 Descending FlightAware
03:45PM 42.4560 -71.0980 98° East 215 247 7,200 -600 Descending FlightAware
03:45PM 42.4530 -71.0630 97° East 205 236 6,900 -660 Descending FlightAware
03:46PM 42.4460 -71.0260 104° East 202 232 6,600 -480 Descending FlightAware
03:46PM 42.4380 -71.0180 144° Southeast 206 237 6,600 -240 Level FlightAware
03:46PM 42.4240 -71.0110 160° South 215 247 6,500 -600 Descending FlightAware
03:48PM 42.3340 -70.9910 171° South 222 255 5,600 -720 Descending FlightAware
03:48PM 42.3100 -70.9850 170° South 221 254 5,100 -1,500 Descending FlightAware
03:49PM 42.2620 -70.9750 171° South 223 257 3,900 -1,560 Descending FlightAware
03:49PM 42.2310 -70.9700 173° South 225 259 3,200 -1,320 Descending FlightAware
03:50PM 42.2100 -70.9760 192° South 232 267 2,800 -1,200 Descending FlightAware
03:50PM 42.2050 -70.9780 197° South 233 268 2,700 -240 Descending FlightAware
03:51PM 42.1550 -71.0020 200° South 243 280 2,600 -120 Descending FlightAware
03:51PM 42.1410 -71.0310 237° Southwest 246 283 2,600  Level FlightAware
03:51PM 42.1430 -71.0540 277° West 235 270 2,600  Level FlightAware
03:51PM 42.1560 -71.0750 310° West 219 252 2,600  Level FlightAware
03:52PM 42.1690 -71.0810 341° North 201 231 2,600  Level FlightAware
03:52PM 42.1890 -71.0850 352° North 170 196 2,600  Level FlightAware
03:53PM 42.2100 -71.0790 12° North 159 183 2,600 -180 Level FlightAware
03:53PM 42.2220 -71.0740 17° North 157 181 2,500 -540 Descending FlightAware
03:53PM 42.2350 -71.0680 19° North 156 180 2,300 -900 Descending FlightAware
03:54PM 42.2600 -71.0560 20° North 153 176 1,700 -900 Descending FlightAware
03:54PM 42.2830 -71.0450 19° North 134 154 1,200 -720 Descending FlightAware
03:55PM 42.2890 -71.0420 20° North 124 143 900 -720 Descending FlightAware
03:55PM 42.3010 -71.0360 20° North 124 143 800 -360 Descending FlightAware
03:56PM 42.3250 -71.0240 20° North 116 133 600 -360 Descending FlightAware
03:56PM 42.3500 -71.0167 20° North 119 137 400 -600 Descending KA90